Time;durP1;ratioP1;P1;durP2;ratioP2;P2;SDS_P1;SDS_P2;PMS_P1;PMS_P2;Temp;Humidity;BMP_temperature;BMP_pressure;BME280_temperature;BME280_humidity;BME280_pressure;Samples;Min_cycle;Max_cycle;Signal;HPM_P1;HPM_P2
2023/03/01 00:01:00;;;;;;;45.67;34.10;;;-2.50;99.90;;;;;;4938711;28;20185;-43
2023/03/01 00:03:25;;;;;;;43.78;34.70;;;-2.50;99.90;;;;;;4940639;28;20475;-42
2023/03/01 00:05:51;;;;;;;46.03;35.53;;;-2.50;99.90;;;;;;4943902;28;20300;-42
2023/03/01 00:08:16;;;;;;;49.17;34.77;;;-2.50;99.90;;;;;;4941860;28;20197;-43
2023/03/01 00:10:42;;;;;;;41.17;33.23;;;-2.60;99.90;;;;;;4941553;29;20181;-41
2023/03/01 00:13:08;;;;;;;43.83;33.10;;;-2.60;99.90;;;;;;4942099;28;20296;-41
2023/03/01 00:15:37;;;;;;;43.20;33.20;;;-2.60;99.90;;;;;;4944191;28;20826;-40
2023/03/01 00:18:03;;;;;;;45.13;34.38;;;-2.60;99.90;;;;;;4941782;29;20241;-44
2023/03/01 00:20:28;;;;;;;42.33;32.50;;;-2.60;99.90;;;;;;4942519;28;20204;-44
2023/03/01 00:22:54;;;;;;;43.27;31.47;;;-2.70;99.90;;;;;;4941321;28;20298;-41
2023/03/01 00:25:19;;;;;;;44.10;32.60;;;-2.70;99.90;;;;;;4941369;28;20194;-41
2023/03/01 00:27:46;;;;;;;40.63;31.30;;;-2.80;99.90;;;;;;4941248;29;20228;-43
2023/03/01 00:30:12;;;;;;;49.10;33.03;;;-2.80;99.90;;;;;;4941856;29;20213;-43
2023/03/01 00:32:38;;;;;;;39.87;32.70;;;-2.80;99.90;;;;;;4942529;28;20647;-42
2023/03/01 00:35:05;;;;;;;46.27;33.70;;;-2.80;99.90;;;;;;4941211;28;20440;-41
2023/03/01 00:37:31;;;;;;;44.28;32.92;;;-2.80;99.90;;;;;;4941404;28;20273;-42
2023/03/01 00:39:56;;;;;;;43.43;31.87;;;-2.90;99.90;;;;;;4940993;29;20648;-41
2023/03/01 00:42:23;;;;;;;38.07;31.07;;;-2.90;99.90;;;;;;4941246;29;20212;-43
2023/03/01 00:44:48;;;;;;;41.83;31.85;;;-2.90;99.90;;;;;;4940310;29;20201;-42
2023/03/01 00:47:14;;;;;;;41.60;31.90;;;-2.90;99.90;;;;;;4941058;29;20189;-41
2023/03/01 00:49:40;;;;;;;41.33;31.47;;;-2.90;99.90;;;;;;4944620;28;20302;-41
2023/03/01 00:52:05;;;;;;;42.03;33.73;;;-3.00;99.90;;;;;;4941022;28;20188;-43
2023/03/01 00:54:31;;;;;;;40.53;32.03;;;-3.00;99.90;;;;;;4940758;29;21013;-41
2023/03/01 00:56:56;;;;;;;37.90;30.40;;;-3.00;99.90;;;;;;4940938;28;20200;-41
2023/03/01 00:59:22;;;;;;;39.07;31.33;;;-3.00;99.90;;;;;;4941051;28;20610;-42
2023/03/01 01:01:48;;;;;;;41.00;33.00;;;-3.00;99.90;;;;;;4939789;29;20295;-40
2023/03/01 01:04:14;;;;;;;39.13;30.67;;;-3.10;99.90;;;;;;4940991;29;20185;-41
2023/03/01 01:06:45;;;;;;;43.33;31.87;;;-3.10;99.90;;;;;;4942410;28;20197;-41
2023/03/01 01:09:16;;;;;;;41.05;31.98;;;-3.10;99.90;;;;;;4940716;28;20453;-42
2023/03/01 01:11:44;;;;;;;39.58;31.90;;;-3.10;99.90;;;;;;4940098;28;20616;-42
2023/03/01 01:14:09;;;;;;;40.90;31.02;;;-3.10;99.90;;;;;;4940208;28;20235;-42
2023/03/01 01:16:35;;;;;;;39.63;32.27;;;-3.10;99.90;;;;;;4941368;28;20264;-45
2023/03/01 01:19:01;;;;;;;39.67;31.40;;;-3.20;99.90;;;;;;4940606;28;20232;-41
2023/03/01 01:21:28;;;;;;;41.17;32.20;;;-3.20;99.90;;;;;;4942037;28;20768;-41
2023/03/01 01:23:54;;;;;;;43.25;32.30;;;-3.20;99.90;;;;;;4945010;28;20515;-41
2023/03/01 01:26:25;;;;;;;42.55;31.63;;;-3.20;99.90;;;;;;4940414;29;20460;-42
2023/03/01 01:28:51;;;;;;;42.85;31.55;;;-3.20;99.90;;;;;;4940412;28;20213;-43
2023/03/01 01:31:18;;;;;;;43.43;32.17;;;-3.20;99.90;;;;;;4940561;28;20690;-41
2023/03/01 01:33:44;;;;;;;44.00;33.30;;;-3.20;99.90;;;;;;4940780;29;20557;-41
2023/03/01 01:36:10;;;;;;;43.63;33.27;;;-3.20;99.90;;;;;;4940620;28;20526;-44
2023/03/01 01:38:37;;;;;;;41.55;32.75;;;-3.20;99.90;;;;;;4941175;28;20498;-41
2023/03/01 01:41:04;;;;;;;42.40;33.67;;;-3.20;99.90;;;;;;4939852;28;20564;-41
2023/03/01 01:43:36;;;;;;;42.15;32.92;;;-3.20;99.90;;;;;;4939253;28;20201;-42
2023/03/01 01:46:24;;;;;;;42.67;33.75;;;-3.30;99.90;;;;;;4940018;28;20184;-43
2023/03/01 01:48:56;;;;;;;45.78;34.20;;;-3.30;99.90;;;;;;4941131;28;20323;-42
2023/03/01 01:51:37;;;;;;;46.08;34.35;;;-3.30;99.90;;;;;;4940515;28;20887;-40
2023/03/01 01:54:08;;;;;;;42.35;33.92;;;-3.30;99.90;;;;;;4940807;28;20193;-43
2023/03/01 01:56:34;;;;;;;44.08;33.67;;;-3.40;99.90;;;;;;4940131;28;20593;-42
2023/03/01 01:59:01;;;;;;;44.50;32.50;;;-3.40;99.90;;;;;;4940683;28;20193;-42
2023/03/01 02:01:27;;;;;;;44.67;32.33;;;-3.40;99.90;;;;;;4939913;28;20201;-41
2023/03/01 02:03:52;;;;;;;48.03;34.50;;;-3.30;99.90;;;;;;4941186;28;20185;-41
2023/03/01 02:06:41;;;;;;;42.40;32.17;;;-3.30;99.90;;;;;;4940173;28;20246;-42
2023/03/01 02:09:15;;;;;;;46.63;32.47;;;-3.30;99.90;;;;;;4939398;28;20470;-40
2023/03/01 02:11:41;;;;;;;46.50;33.83;;;-3.40;99.90;;;;;;4940131;28;20329;-41
2023/03/01 02:14:07;;;;;;;38.42;31.48;;;-3.40;99.90;;;;;;4940926;28;20189;-43
2023/03/01 02:16:33;;;;;;;41.90;31.63;;;-3.50;99.90;;;;;;4940062;28;20635;-41
2023/03/01 02:18:59;;;;;;;47.38;32.20;;;-3.50;99.90;;;;;;4939243;28;20585;-44
2023/03/01 02:21:49;;;;;;;41.17;30.83;;;-3.50;99.90;;;;;;4940170;28;20667;-41
2023/03/01 02:24:49;;;;;;;40.45;30.92;;;-3.50;99.90;;;;;;4938848;28;20281;-44
2023/03/01 02:27:16;;;;;;;45.22;33.10;;;-3.50;99.90;;;;;;4939012;28;20199;-41
2023/03/01 02:29:43;;;;;;;41.55;31.13;;;-3.60;99.90;;;;;;4940966;28;20224;-41
2023/03/01 02:32:11;;;;;;;42.47;31.58;;;-3.50;99.90;;;;;;4940955;28;20273;-40
2023/03/01 02:34:38;;;;;;;43.47;30.88;;;-3.60;99.90;;;;;;4940509;28;20177;-42
2023/03/01 02:37:12;;;;;;;42.72;31.85;;;-3.70;99.90;;;;;;4940100;28;20607;-41
2023/03/01 02:39:46;;;;;;;38.55;30.10;;;-3.60;99.90;;;;;;4940658;28;20546;-42
2023/03/01 02:42:15;;;;;;;39.35;29.50;;;-3.70;99.90;;;;;;4940154;28;20205;-42
2023/03/01 02:44:41;;;;;;;46.45;30.92;;;-3.80;99.90;;;;;;4939902;28;20193;-41
2023/03/01 02:47:06;;;;;;;42.93;29.80;;;-3.80;99.90;;;;;;4939014;28;20193;-42
2023/03/01 02:49:34;;;;;;;40.90;30.17;;;-3.80;99.90;;;;;;4938800;29;20489;-42
2023/03/01 02:52:18;;;;;;;46.60;32.20;;;-3.80;99.90;;;;;;4940305;28;20196;-43
2023/03/01 02:54:54;;;;;;;36.85;30.08;;;-3.90;99.90;;;;;;4938804;28;20200;-42
2023/03/01 02:57:21;;;;;;;42.42;30.42;;;-3.90;99.90;;;;;;4938087;28;20193;-41
2023/03/01 02:59:48;;;;;;;44.63;31.30;;;-3.90;99.90;;;;;;4939633;28;20173;-43
2023/03/01 03:02:38;;;;;;;39.15;29.90;;;-3.90;99.90;;;;;;4938469;28;20557;-42
2023/03/01 03:05:09;;;;;;;37.80;29.50;;;-3.90;99.90;;;;;;4939242;28;20456;-40
2023/03/01 03:07:41;;;;;;;41.38;30.42;;;-3.90;99.90;;;;;;4938487;28;20682;-42
2023/03/01 03:10:11;;;;;;;42.25;30.85;;;-4.00;99.90;;;;;;4938655;29;20951;-41
2023/03/01 03:12:37;;;;;;;40.67;30.20;;;-4.00;99.90;;;;;;4939339;28;20177;-42
2023/03/01 03:15:08;;;;;;;38.65;29.13;;;-4.00;99.90;;;;;;4939155;28;20189;-41
2023/03/01 03:17:35;;;;;;;40.63;29.75;;;-4.00;99.90;;;;;;4938818;29;20562;-41
2023/03/01 03:20:03;;;;;;;38.95;28.27;;;-3.90;99.90;;;;;;4939088;29;20185;-41
2023/03/01 03:22:28;;;;;;;37.53;28.25;;;-4.00;99.90;;;;;;4941265;28;20311;-41
2023/03/01 03:24:54;;;;;;;41.93;31.47;;;-4.10;99.90;;;;;;4940658;28;20181;-40
2023/03/01 03:27:19;;;;;;;41.40;30.90;;;-4.00;99.90;;;;;;4939221;28;20673;-41
2023/03/01 03:29:45;;;;;;;39.13;29.00;;;-4.00;99.90;;;;;;4938426;29;20223;-41
2023/03/01 03:32:10;;;;;;;41.40;30.13;;;-4.10;99.90;;;;;;4937609;28;20200;-41
2023/03/01 03:34:36;;;;;;;42.80;31.57;;;-4.10;99.90;;;;;;4938994;29;20702;-41
2023/03/01 03:37:02;;;;;;;42.20;29.80;;;-4.10;99.90;;;;;;4942341;29;20185;-41
2023/03/01 03:39:34;;;;;;;44.90;30.73;;;-4.10;99.90;;;;;;4942820;28;20269;-41
2023/03/01 03:42:00;;;;;;;41.83;29.63;;;-4.20;99.90;;;;;;4942132;29;20590;-41
2023/03/01 03:44:26;;;;;;;40.55;30.50;;;-4.10;99.90;;;;;;4941967;28;20221;-42
2023/03/01 03:46:51;;;;;;;44.17;30.70;;;-4.20;99.90;;;;;;4942241;29;20643;-41
2023/03/01 03:49:17;;;;;;;36.97;29.73;;;-4.20;99.90;;;;;;4942039;29;20205;-41
2023/03/01 03:51:45;;;;;;;43.70;31.97;;;-4.20;99.90;;;;;;4942148;29;20242;-42
2023/03/01 03:54:10;;;;;;;38.92;29.83;;;-4.20;99.90;;;;;;4941857;29;20247;-43
2023/03/01 03:56:36;;;;;;;36.33;28.80;;;-4.30;99.90;;;;;;4942419;28;20185;-45
2023/03/01 03:59:02;;;;;;;41.40;29.10;;;-4.30;99.90;;;;;;4942097;28;20525;-40
2023/03/01 04:01:27;;;;;;;47.20;31.43;;;-4.30;99.90;;;;;;4941739;29;20258;-41
2023/03/01 04:03:54;;;;;;;41.23;29.40;;;-4.40;99.90;;;;;;4941669;29;20551;-42
2023/03/01 04:06:20;;;;;;;37.08;27.65;;;-4.30;99.90;;;;;;4941978;28;20186;-40
2023/03/01 04:08:46;;;;;;;44.70;30.80;;;-4.30;99.90;;;;;;4940396;29;20285;-40
2023/03/01 04:11:27;;;;;;;37.93;29.80;;;-4.40;99.90;;;;;;4942804;28;20425;-42
2023/03/01 04:13:56;;;;;;;44.72;29.65;;;-4.30;99.90;;;;;;4941037;28;20189;-40
2023/03/01 04:16:23;;;;;;;38.05;29.15;;;-4.40;99.90;;;;;;4941466;28;20188;-41
2023/03/01 04:18:48;;;;;;;39.13;29.45;;;-4.40;99.90;;;;;;4940854;28;20233;-45
2023/03/01 04:21:14;;;;;;;40.40;29.87;;;-4.40;99.90;;;;;;4940890;28;20196;-42
2023/03/01 04:23:40;;;;;;;40.10;30.80;;;-4.40;99.90;;;;;;4940526;28;20675;-40
2023/03/01 04:26:06;;;;;;;43.65;31.70;;;-4.40;99.90;;;;;;4937755;28;20197;-41
2023/03/01 04:28:39;;;;;;;41.43;30.27;;;-4.40;99.90;;;;;;4941471;29;20182;-40
2023/03/01 04:31:15;;;;;;;41.67;31.23;;;-4.40;99.90;;;;;;4943807;28;20236;-41
2023/03/01 04:33:42;;;;;;;40.78;29.13;;;-4.40;99.90;;;;;;4941179;28;20191;-40
2023/03/01 04:36:09;;;;;;;44.25;31.65;;;-4.40;99.90;;;;;;4941658;28;20286;-42
2023/03/01 04:38:37;;;;;;;40.05;29.10;;;-4.50;99.90;;;;;;4941304;29;20186;-40
2023/03/01 04:41:07;;;;;;;39.83;29.35;;;-4.50;99.90;;;;;;4940139;28;20656;-41
2023/03/01 04:43:33;;;;;;;41.17;29.80;;;-4.50;99.90;;;;;;4941340;29;20213;-40
2023/03/01 04:46:05;;;;;;;38.42;29.67;;;-4.60;99.90;;;;;;4940689;29;20637;-41
2023/03/01 04:48:32;;;;;;;41.45;29.05;;;-4.60;99.90;;;;;;4944957;28;20220;-42
2023/03/01 04:50:59;;;;;;;48.30;31.55;;;-4.60;99.90;;;;;;4940907;29;20186;-41
2023/03/01 04:53:25;;;;;;;44.30;29.70;;;-4.60;99.90;;;;;;4940532;29;20190;-40
2023/03/01 04:55:51;;;;;;;44.22;32.00;;;-4.60;99.90;;;;;;4941891;28;20204;-41
2023/03/01 04:58:17;;;;;;;42.90;30.67;;;-4.70;99.90;;;;;;4939602;29;20193;-41
2023/03/01 05:00:42;;;;;;;42.83;29.67;;;-4.70;99.90;;;;;;4941329;28;20190;-41
2023/03/01 05:03:08;;;;;;;40.03;29.50;;;-4.70;99.90;;;;;;4940630;29;20181;-41
2023/03/01 05:05:38;;;;;;;43.85;31.15;;;-4.70;99.90;;;;;;4943653;28;20675;-41
2023/03/01 05:08:07;;;;;;;39.97;29.55;;;-4.70;99.90;;;;;;4940969;29;20240;-41
2023/03/01 05:10:35;;;;;;;41.75;28.63;;;-4.80;99.90;;;;;;4941052;29;20504;-41
2023/03/01 05:13:02;;;;;;;41.40;29.63;;;-4.70;99.90;;;;;;4941094;28;20193;-41
2023/03/01 05:15:30;;;;;;;42.85;29.63;;;-4.70;99.90;;;;;;4939833;28;20213;-41
2023/03/01 05:17:59;;;;;;;45.63;28.15;;;-4.70;99.90;;;;;;4942593;28;20269;-41
2023/03/01 05:20:29;;;;;;;41.38;30.85;;;-4.70;99.90;;;;;;4938624;28;20296;-41
2023/03/01 05:22:59;;;;;;;36.78;27.13;;;-4.70;99.90;;;;;;4939826;28;20229;-40
2023/03/01 05:25:25;;;;;;;39.55;29.05;;;-4.70;99.90;;;;;;4942197;28;20567;-39
2023/03/01 05:27:51;;;;;;;41.20;30.77;;;-4.70;99.90;;;;;;4940104;28;20189;-42
2023/03/01 05:30:17;;;;;;;40.27;29.43;;;-4.70;99.90;;;;;;4940435;28;20471;-42
2023/03/01 05:33:23;;;;;;;44.17;31.30;;;-4.70;99.90;;;;;;4939434;29;20190;-41
2023/03/01 05:36:27;;;;;;;44.42;28.27;;;-4.70;99.90;;;;;;4940613;28;20192;-41
2023/03/01 05:39:07;;;;;;;40.88;29.00;;;-4.70;99.90;;;;;;4940207;28;20196;-41
2023/03/01 05:41:33;;;;;;;39.33;27.17;;;-4.70;99.90;;;;;;4940345;29;20189;-44
2023/03/01 05:43:59;;;;;;;36.53;28.63;;;-4.70;99.90;;;;;;4940232;29;20239;-41
2023/03/01 05:46:24;;;;;;;40.60;30.07;;;-4.80;99.90;;;;;;4940823;28;20255;-41
2023/03/01 05:48:50;;;;;;;42.50;29.13;;;-4.80;99.90;;;;;;4940777;29;20237;-42
2023/03/01 05:51:15;;;;;;;44.53;29.47;;;-4.80;99.90;;;;;;4940809;29;20189;-41
2023/03/01 05:53:41;;;;;;;46.40;30.60;;;-4.80;99.90;;;;;;4941209;28;20196;-41
2023/03/01 05:56:07;;;;;;;45.83;30.40;;;-4.90;99.90;;;;;;4939391;28;20190;-42
2023/03/01 05:58:34;;;;;;;38.47;28.73;;;-4.90;99.90;;;;;;4939867;29;20455;-42
2023/03/01 06:01:00;;;;;;;46.25;29.73;;;-4.90;99.90;;;;;;4941164;28;21369;-42
2023/03/01 06:03:25;;;;;;;48.60;30.90;;;-4.90;99.90;;;;;;4941215;29;20193;-41
2023/03/01 06:05:57;;;;;;;42.53;29.50;;;-4.90;99.90;;;;;;4939641;29;20210;-42
2023/03/01 06:08:26;;;;;;;44.63;29.33;;;-4.90;99.90;;;;;;4940757;29;20421;-41
2023/03/01 06:10:52;;;;;;;45.83;29.65;;;-4.90;99.90;;;;;;4940109;28;20636;-41
2023/03/01 06:13:17;;;;;;;42.30;27.87;;;-4.90;99.90;;;;;;4939858;28;20190;-40
2023/03/01 06:15:43;;;;;;;44.63;29.20;;;-4.90;99.90;;;;;;4940059;28;20223;-40
2023/03/01 06:18:08;;;;;;;43.27;28.67;;;-4.90;99.90;;;;;;4939920;29;20229;-42
2023/03/01 06:20:35;;;;;;;39.33;28.53;;;-4.90;99.90;;;;;;4938844;29;20197;-41
2023/03/01 06:23:02;;;;;;;45.38;29.73;;;-4.90;99.90;;;;;;4938320;28;20185;-42
2023/03/01 06:25:28;;;;;;;45.03;29.75;;;-4.90;99.90;;;;;;4936660;29;20193;-41
2023/03/01 06:27:53;;;;;;;39.80;28.40;;;-4.80;99.90;;;;;;4939343;29;20193;-41
2023/03/01 06:30:21;;;;;;;42.57;28.50;;;-4.80;99.90;;;;;;4938571;29;20472;-44
2023/03/01 06:32:47;;;;;;;42.80;27.98;;;-4.70;99.90;;;;;;4939960;28;20183;-42
2023/03/01 06:35:17;;;;;;;39.13;29.93;;;-4.60;99.90;;;;;;4922407;29;20252;-43
2023/03/01 06:37:43;;;;;;;48.08;34.90;;;-4.60;99.90;;;;;;4939305;28;20797;-41
2023/03/01 06:40:11;;;;;;;47.20;33.00;;;-4.60;99.90;;;;;;4939469;28;20189;-40
2023/03/01 06:42:39;;;;;;;43.72;30.20;;;-4.50;99.90;;;;;;4938061;28;20879;-42
2023/03/01 06:45:06;;;;;;;38.50;27.50;;;-4.50;99.90;;;;;;4939494;28;20212;-41
2023/03/01 06:47:33;;;;;;;42.20;30.20;;;-4.50;99.90;;;;;;4939025;29;20185;-43
2023/03/01 06:49:59;;;;;;;44.40;30.08;;;-4.40;99.90;;;;;;4937117;28;20323;-41
2023/03/01 06:52:25;;;;;;;39.38;29.38;;;-4.40;99.90;;;;;;4940638;28;20185;-42
2023/03/01 06:54:51;;;;;;;43.72;30.33;;;-4.40;99.90;;;;;;4938846;28;20652;-45
2023/03/01 06:57:17;;;;;;;39.87;28.00;;;-4.30;99.90;;;;;;4938936;28;20273;-41
2023/03/01 06:59:43;;;;;;;42.03;29.05;;;-4.30;99.90;;;;;;4939503;28;20181;-42
2023/03/01 07:02:12;;;;;;;42.03;28.63;;;-4.30;99.90;;;;;;4939303;29;20189;-42
2023/03/01 07:04:39;;;;;;;45.22;29.25;;;-4.30;99.90;;;;;;4939022;29;20216;-43
2023/03/01 07:07:05;;;;;;;42.90;29.15;;;-4.20;99.90;;;;;;4939319;29;20563;-44
2023/03/01 07:09:31;;;;;;;41.23;29.10;;;-4.20;99.90;;;;;;4937400;28;20236;-41
2023/03/01 07:11:56;;;;;;;46.00;30.15;;;-4.20;99.90;;;;;;4938634;29;20562;-42
2023/03/01 07:14:25;;;;;;;47.00;30.50;;;-4.30;99.90;;;;;;4938809;28;20359;-41
2023/03/01 07:16:54;;;;;;;46.08;31.40;;;-4.20;99.90;;;;;;4938683;29;20208;-41
2023/03/01 07:19:20;;;;;;;42.72;30.27;;;-4.10;99.90;;;;;;4938770;28;20248;-42
2023/03/01 07:21:47;;;;;;;49.60;31.70;;;-4.00;99.90;;;;;;4938520;28;20241;-41
2023/03/01 07:24:13;;;;;;;44.20;30.67;;;-4.00;99.90;;;;;;4938195;28;20323;-42
2023/03/01 07:26:40;;;;;;;37.90;28.00;;;-3.90;99.90;;;;;;4938957;28;20429;-43
2023/03/01 07:29:09;;;;;;;44.08;30.02;;;-3.80;99.90;;;;;;4938522;28;20236;-41
2023/03/01 07:31:34;;;;;;;47.35;31.08;;;-3.80;99.90;;;;;;4937049;29;20223;-43
2023/03/01 07:34:00;;;;;;;47.00;31.57;;;-3.70;99.90;;;;;;4938237;28;20272;-42
2023/03/01 07:36:26;;;;;;;43.03;30.87;;;-3.70;99.90;;;;;;4939195;28;20193;-41
2023/03/01 07:38:52;;;;;;;46.33;31.63;;;-3.60;99.90;;;;;;4938768;29;20185;-41
2023/03/01 07:41:18;;;;;;;43.33;30.50;;;-3.60;99.90;;;;;;4937596;28;20663;-41
2023/03/01 07:43:44;;;;;;;44.83;30.30;;;-3.50;99.90;;;;;;4937691;28;20208;-41
2023/03/01 07:46:09;;;;;;;46.20;30.43;;;-3.40;99.90;;;;;;4938959;29;20663;-44
2023/03/01 07:48:35;;;;;;;40.13;29.67;;;-3.30;99.90;;;;;;4938396;28;20189;-42
2023/03/01 07:51:03;;;;;;;40.83;30.37;;;-3.10;99.90;;;;;;4939551;28;20184;-41
2023/03/01 07:53:31;;;;;;;43.58;29.83;;;-3.10;99.90;;;;;;4938182;28;20185;-42
2023/03/01 07:56:08;;;;;;;39.78;28.80;;;-3.00;99.90;;;;;;4938739;28;20185;-43
2023/03/01 07:58:36;;;;;;;48.60;30.40;;;-2.80;99.90;;;;;;4938646;28;20203;-41
2023/03/01 08:01:04;;;;;;;40.63;29.00;;;-2.70;99.90;;;;;;4938909;28;20181;-41
2023/03/01 08:03:29;;;;;;;42.08;30.90;;;-2.50;99.90;;;;;;4937952;28;20208;-43
2023/03/01 08:05:55;;;;;;;41.70;28.80;;;-2.40;99.90;;;;;;4938391;28;20190;-44
2023/03/01 08:08:20;;;;;;;44.60;31.07;;;-2.20;99.90;;;;;;4938347;29;20523;-42
2023/03/01 08:10:46;;;;;;;44.40;30.47;;;-2.10;99.90;;;;;;4938622;29;20213;-43
2023/03/01 08:13:12;;;;;;;44.40;31.67;;;-1.90;99.90;;;;;;4937139;29;20208;-42
2023/03/01 08:15:37;;;;;;;42.03;30.20;;;-1.60;99.90;;;;;;4937241;29;20195;-41
2023/03/01 08:18:03;;;;;;;38.27;28.80;;;-1.30;99.90;;;;;;4938516;28;20233;-42
2023/03/01 08:20:29;;;;;;;41.47;30.90;;;-1.20;99.90;;;;;;4938117;28;20277;-42
2023/03/01 08:22:54;;;;;;;43.03;31.10;;;-0.90;99.90;;;;;;4940350;28;20213;-42
2023/03/01 08:25:20;;;;;;;44.77;32.47;;;-0.60;99.90;;;;;;4941667;28;20278;-43
2023/03/01 08:27:45;;;;;;;42.87;33.83;;;0.00;99.90;;;;;;4941693;29;20262;-42
2023/03/01 08:30:12;;;;;;;42.03;34.80;;;0.70;99.90;;;;;;4939021;29;20221;-40
2023/03/01 08:32:39;;;;;;;41.10;32.38;;;1.20;99.90;;;;;;4941166;29;20816;-43
2023/03/01 08:35:05;;;;;;;37.10;29.73;;;1.70;99.90;;;;;;4941865;28;20526;-44
2023/03/01 08:37:33;;;;;;;35.22;29.98;;;2.00;99.90;;;;;;4941193;29;20189;-44
2023/03/01 08:39:59;;;;;;;34.63;30.13;;;2.70;99.90;;;;;;4941342;28;20188;-45
2023/03/01 08:42:25;;;;;;;34.83;30.67;;;3.30;99.90;;;;;;4941409;28;20186;-42
2023/03/01 08:44:51;;;;;;;31.20;27.90;;;3.90;99.90;;;;;;4939713;29;20186;-45
2023/03/01 08:47:17;;;;;;;30.30;27.13;;;4.40;99.30;;;;;;4941224;29;20647;-42
2023/03/01 08:49:42;;;;;;;33.47;28.00;;;5.00;98.10;;;;;;4941407;28;20279;-44
2023/03/01 08:52:08;;;;;;;30.37;27.37;;;5.60;95.50;;;;;;4940283;28;20197;-42
2023/03/01 08:54:33;;;;;;;32.50;29.20;;;5.80;92.80;;;;;;4941119;28;20181;-43
2023/03/01 08:57:01;;;;;;;32.23;28.93;;;6.00;89.90;;;;;;4940956;29;20824;-45
2023/03/01 08:59:29;;;;;;;32.00;28.70;;;6.20;84.90;;;;;;4941492;28;20181;-41
2023/03/01 09:01:55;;;;;;;31.83;28.80;;;6.40;81.40;;;;;;4940907;29;20479;-45
2023/03/01 09:04:21;;;;;;;32.07;29.07;;;6.80;78.90;;;;;;4939117;29;20520;-42
2023/03/01 09:06:48;;;;;;;30.83;27.83;;;7.00;78.20;;;;;;4940506;29;20438;-46
2023/03/01 09:09:17;;;;;;;32.77;29.57;;;7.50;76.80;;;;;;4940328;28;20462;-43
2023/03/01 09:11:45;;;;;;;31.37;28.27;;;7.60;71.50;;;;;;4940660;28;20517;-44
2023/03/01 09:14:12;;;;;;;31.20;28.30;;;8.10;70.50;;;;;;4940863;28;20500;-44
2023/03/01 09:16:38;;;;;;;32.50;29.50;;;8.40;66.10;;;;;;4938140;28;20471;-43
2023/03/01 09:19:04;;;;;;;34.67;31.37;;;8.60;61.00;;;;;;4939315;28;20945;-45
2023/03/01 09:21:31;;;;;;;34.67;31.27;;;9.20;60.90;;;;;;4940324;28;20239;-43
2023/03/01 09:23:58;;;;;;;35.13;31.73;;;9.20;55.00;;;;;;4940462;28;20444;-45
2023/03/01 09:26:24;;;;;;;34.10;30.90;;;9.00;55.70;;;;;;4939789;28;20477;-43
2023/03/01 09:28:52;;;;;;;34.67;31.27;;;9.10;57.20;;;;;;4940726;29;20429;-44
2023/03/01 09:31:22;;;;;;;36.13;32.57;;;10.00;54.60;;;;;;4939833;28;20445;-42
2023/03/01 09:33:49;;;;;;;35.10;31.90;;;10.10;52.30;;;;;;4939535;28;20427;-45
2023/03/01 09:36:21;;;;;;;33.97;30.47;;;10.20;51.00;;;;;;4940013;28;20427;-46
2023/03/01 09:38:50;;;;;;;35.13;31.73;;;10.30;50.50;;;;;;4939934;28;20772;-46
2023/03/01 09:41:15;;;;;;;34.67;31.37;;;10.20;50.70;;;;;;4940283;28;20432;-44
2023/03/01 09:43:53;;;;;;;34.20;30.90;;;10.60;49.40;;;;;;4940053;29;20501;-44
2023/03/01 09:46:21;;;;;;;34.37;30.87;;;10.60;49.10;;;;;;4939740;28;20271;-46
2023/03/01 09:49:06;;;;;;;33.63;30.53;;;10.60;50.30;;;;;;4939682;29;20894;-42
2023/03/01 09:51:34;;;;;;;35.00;31.70;;;10.60;48.50;;;;;;4939930;28;20495;-43
2023/03/01 09:54:05;;;;;;;36.07;32.77;;;10.50;48.30;;;;;;4938641;29;20428;-44
2023/03/01 09:57:14;;;;;;;35.63;32.13;;;11.00;49.00;;;;;;4939776;28;20420;-43
2023/03/01 10:00:04;;;;;;;35.07;31.70;;;11.40;47.30;;;;;;4927680;28;20429;-43
2023/03/01 10:02:49;;;;;;;35.90;32.50;;;11.80;47.30;;;;;;4935749;28;20495;-44
2023/03/01 10:05:52;;;;;;;34.50;31.30;;;11.90;45.40;;;;;;4939444;29;20409;-48
2023/03/01 10:08:33;;;;;;;35.03;31.80;;;12.40;44.40;;;;;;4939167;29;20826;-45
2023/03/01 10:10:59;;;;;;;34.50;31.30;;;12.60;43.20;;;;;;4937141;28;20473;-44
2023/03/01 10:13:45;;;;;;;36.87;33.37;;;12.30;43.30;;;;;;4937946;28;20474;-45
2023/03/01 10:16:32;;;;;;;34.10;31.00;;;12.70;42.80;;;;;;4936620;28;21227;-44
2023/03/01 10:19:03;;;;;;;34.10;31.10;;;13.20;41.80;;;;;;4940081;28;20495;-43
2023/03/01 10:21:31;;;;;;;33.43;30.30;;;13.50;41.20;;;;;;4940296;28;20456;-46
2023/03/01 10:24:08;;;;;;;36.73;33.20;;;13.80;39.30;;;;;;4934637;28;21037;-42
2023/03/01 10:26:57;;;;;;;34.10;31.00;;;14.10;38.10;;;;;;4940202;28;20535;-44
2023/03/01 10:29:34;;;;;;;34.07;30.77;;;13.70;37.30;;;;;;4939639;29;20563;-45
2023/03/01 10:32:00;;;;;;;34.90;31.50;;;14.30;38.00;;;;;;4940127;29;20452;-43
2023/03/01 10:34:31;;;;;;;33.00;29.93;;;14.30;37.00;;;;;;4940355;28;20836;-43
2023/03/01 10:37:19;;;;;;;32.63;29.83;;;14.50;35.60;;;;;;4940984;28;20483;-44
2023/03/01 10:40:07;;;;;;;32.50;29.60;;;14.80;35.90;;;;;;4939506;29;20495;-43
2023/03/01 10:42:49;;;;;;;32.80;29.90;;;15.00;34.50;;;;;;4940078;28;20421;-44
2023/03/01 10:45:29;;;;;;;28.53;25.63;;;15.10;33.30;;;;;;4939656;28;20425;-43
2023/03/01 10:48:05;;;;;;;27.97;25.53;;;15.00;31.20;;;;;;4939923;29;20432;-44
2023/03/01 10:50:31;;;;;;;27.50;25.10;;;15.30;32.10;;;;;;4939337;28;20845;-43
2023/03/01 10:53:04;;;;;;;31.80;28.97;;;15.90;30.80;;;;;;4940007;29;20460;-43
2023/03/01 10:55:38;;;;;;;29.90;27.40;;;16.20;30.70;;;;;;4939882;29;20508;-44
2023/03/01 10:58:22;;;;;;;28.23;26.00;;;16.30;30.50;;;;;;4939318;28;20863;-42
2023/03/01 11:00:52;;;;;;;27.60;25.30;;;17.00;29.10;;;;;;4940739;28;20523;-41
2023/03/01 11:03:23;;;;;;;27.80;25.60;;;17.40;27.90;;;;;;4939866;29;20421;-44
2023/03/01 11:05:58;;;;;;;28.40;26.10;;;17.50;26.90;;;;;;4939696;28;20466;-45
2023/03/01 11:08:34;;;;;;;27.50;25.30;;;17.20;27.70;;;;;;4940014;28;20926;-45
2023/03/01 11:11:05;;;;;;;27.57;25.30;;;16.70;27.70;;;;;;4939491;28;20464;-46
2023/03/01 11:13:31;;;;;;;29.10;26.53;;;16.70;27.70;;;;;;4939471;29;20413;-45
2023/03/01 11:16:07;;;;;;;27.00;24.80;;;16.70;27.80;;;;;;4938420;29;21561;-46
2023/03/01 11:18:33;;;;;;;28.63;26.33;;;17.20;27.00;;;;;;4939329;28;20606;-43
2023/03/01 11:21:00;;;;;;;28.53;26.23;;;17.20;27.40;;;;;;4939375;28;20428;-46
2023/03/01 11:23:30;;;;;;;28.93;26.53;;;17.10;27.40;;;;;;4936983;28;20190;-46
2023/03/01 11:26:01;;;;;;;29.33;26.83;;;17.30;27.10;;;;;;4938997;29;20433;-51
2023/03/01 11:28:28;;;;;;;28.40;26.10;;;17.00;26.50;;;;;;4939809;28;20436;-44
2023/03/01 11:31:03;;;;;;;29.57;26.97;;;16.60;27.10;;;;;;4939564;28;20460;-44
2023/03/01 11:33:36;;;;;;;26.23;24.13;;;16.80;27.30;;;;;;4939279;28;20898;-47
2023/03/01 11:36:13;;;;;;;28.60;26.20;;;17.00;27.90;;;;;;4939283;28;20425;-47
2023/03/01 11:38:40;;;;;;;29.97;27.33;;;17.90;27.40;;;;;;4938181;28;20444;-45
2023/03/01 11:41:15;;;;;;;29.80;27.40;;;18.00;27.00;;;;;;4938756;28;20480;-43
2023/03/01 11:44:00;;;;;;;29.07;26.87;;;18.40;26.00;;;;;;4938160;28;20475;-42
2023/03/01 11:46:32;;;;;;;27.00;24.83;;;18.00;26.20;;;;;;4939340;29;20495;-47
2023/03/01 11:49:06;;;;;;;29.27;26.90;;;17.90;25.70;;;;;;4938185;29;20451;-44
2023/03/01 11:51:37;;;;;;;28.00;25.70;;;17.90;25.30;;;;;;4938261;28;20447;-44
2023/03/01 11:54:21;;;;;;;27.40;25.10;;;17.70;26.10;;;;;;4939264;29;20450;-45
2023/03/01 11:57:08;;;;;;;28.80;26.40;;;17.60;25.50;;;;;;4939157;29;20588;-46
2023/03/01 11:59:46;;;;;;;28.10;25.87;;;17.60;25.80;;;;;;4943506;28;20432;-45
2023/03/01 12:03:01;;;;;;;27.53;25.33;;;17.80;25.50;;;;;;4943764;28;20527;-43
2023/03/01 12:06:05;;;;;;;26.70;24.60;;;17.60;25.10;;;;;;4974681;28;20445;-45
2023/03/01 12:08:50;;;;;;;27.80;25.50;;;17.80;25.90;;;;;;4964190;28;20935;-45
2023/03/01 12:11:49;;;;;;;28.30;25.67;;;18.10;25.10;;;;;;4942417;29;20444;-40
2023/03/01 12:14:36;;;;;;;29.27;26.97;;;18.50;24.90;;;;;;4940831;28;20461;-45
2023/03/01 12:17:23;;;;;;;28.47;26.23;;;17.40;24.10;;;;;;4942640;29;20456;-45
2023/03/01 12:19:58;;;;;;;31.60;28.90;;;17.70;25.30;;;;;;4941309;29;21452;-45
2023/03/01 12:22:48;;;;;;;33.03;30.23;;;16.90;26.30;;;;;;4939093;28;20448;-47
2023/03/01 12:25:34;;;;;;;31.20;28.60;;;17.30;26.10;;;;;;4941724;28;20452;-46
2023/03/01 12:28:19;;;;;;;32.07;29.37;;;17.10;26.40;;;;;;4942285;28;20515;-44
2023/03/01 12:31:15;;;;;;;32.10;29.47;;;16.70;26.40;;;;;;4942176;28;20537;-42
2023/03/01 12:34:13;;;;;;;31.80;29.10;;;17.40;26.40;;;;;;4941188;28;20911;-49
2023/03/01 12:36:54;;;;;;;29.90;27.37;;;17.10;26.20;;;;;;4940973;28;20438;-45
2023/03/01 12:39:44;;;;;;;33.27;30.27;;;17.10;26.50;;;;;;4941555;28;21106;-42
2023/03/01 12:42:36;;;;;;;35.43;32.33;;;17.80;26.50;;;;;;4941998;28;20538;-41
2023/03/01 12:45:25;;;;;;;34.30;31.50;;;17.60;26.40;;;;;;4941566;28;20505;-45